sensor_id;sensor_type;location;lat;lon;timestamp;temperature;humidity
25688;DHT22;17407;51.120;3.702;2023-05-07T11:57:34;22.50;99.90
25688;DHT22;17407;51.120;3.702;2023-05-07T12:00:01;21.80;99.90
25688;DHT22;17407;51.120;3.702;2023-05-07T12:02:30;21.40;99.90
25688;DHT22;17407;51.120;3.702;2023-05-07T12:04:56;21.10;99.90
25688;DHT22;17407;51.120;3.702;2023-05-07T12:07:23;21.00;99.90
25688;DHT22;17407;51.120;3.702;2023-05-07T12:09:50;21.10;99.90
25688;DHT22;17407;51.120;3.702;2023-05-07T12:12:15;21.20;99.90
25688;DHT22;17407;51.120;3.702;2023-05-07T12:14:43;21.20;99.90
25688;DHT22;17407;51.120;3.702;2023-05-07T12:17:10;21.20;99.90
25688;DHT22;17407;51.120;3.702;2023-05-07T12:19:38;21.30;99.90
25688;DHT22;17407;51.120;3.702;2023-05-07T12:22:04;21.30;99.90
25688;DHT22;17407;51.120;3.702;2023-05-07T12:24:50;21.40;99.90
25688;DHT22;17407;51.120;3.702;2023-05-07T12:27:21;21.40;99.90
25688;DHT22;17407;51.120;3.702;2023-05-07T12:29:48;21.40;99.90
25688;DHT22;17407;51.120;3.702;2023-05-07T12:32:18;21.40;99.90
25688;DHT22;17407;51.120;3.702;2023-05-07T12:34:44;21.30;99.90
25688;DHT22;17407;51.120;3.702;2023-05-07T12:37:10;21.40;99.90
25688;DHT22;17407;51.120;3.702;2023-05-07T12:39:36;21.50;99.90
25688;DHT22;17407;51.120;3.702;2023-05-07T12:42:02;21.60;99.90
25688;DHT22;17407;51.120;3.702;2023-05-07T12:44:34;21.70;99.90
25688;DHT22;17407;51.120;3.702;2023-05-07T12:47:03;21.80;99.90
25688;DHT22;17407;51.120;3.702;2023-05-07T12:49:29;21.90;99.90
25688;DHT22;17407;51.120;3.702;2023-05-07T12:51:55;22.00;99.90
25688;DHT22;17407;51.120;3.702;2023-05-07T12:54:29;22.00;99.90
25688;DHT22;17407;51.120;3.702;2023-05-07T12:57:09;22.00;99.90
25688;DHT22;17407;51.120;3.702;2023-05-07T12:59:40;21.90;99.90
25688;DHT22;17407;51.120;3.702;2023-05-07T13:02:06;22.00;99.90
25688;DHT22;17407;51.120;3.702;2023-05-07T13:04:33;22.00;99.90
25688;DHT22;17407;51.120;3.702;2023-05-07T13:07:00;22.00;99.90
25688;DHT22;17407;51.120;3.702;2023-05-07T13:09:25;22.10;99.90
25688;DHT22;17407;51.120;3.702;2023-05-07T13:11:51;22.10;99.90
25688;DHT22;17407;51.120;3.702;2023-05-07T13:14:17;22.10;99.90
25688;DHT22;17407;51.120;3.702;2023-05-07T13:16:43;22.10;99.90
25688;DHT22;17407;51.120;3.702;2023-05-07T13:19:08;22.10;99.90
25688;DHT22;17407;51.120;3.702;2023-05-07T13:21:34;22.20;99.90
25688;DHT22;17407;51.120;3.702;2023-05-07T13:23:59;22.30;99.90
25688;DHT22;17407;51.120;3.702;2023-05-07T13:26:26;22.40;99.90
25688;DHT22;17407;51.120;3.702;2023-05-07T13:28:53;22.50;99.90
25688;DHT22;17407;51.120;3.702;2023-05-07T13:31:18;22.50;99.90
25688;DHT22;17407;51.120;3.702;2023-05-07T13:33:46;22.60;99.90
25688;DHT22;17407;51.120;3.702;2023-05-07T13:36:12;22.70;99.90
25688;DHT22;17407;51.120;3.702;2023-05-07T13:38:37;22.80;99.90
25688;DHT22;17407;51.120;3.702;2023-05-07T13:41:03;22.90;99.90
25688;DHT22;17407;51.120;3.702;2023-05-07T13:43:28;23.00;99.90
25688;DHT22;17407;51.120;3.702;2023-05-07T13:45:54;23.00;99.90
25688;DHT22;17407;51.120;3.702;2023-05-07T13:48:20;23.10;99.90
25688;DHT22;17407;51.120;3.702;2023-05-07T13:50:45;23.10;99.90
25688;DHT22;17407;51.120;3.702;2023-05-07T13:53:11;23.20;99.90
25688;DHT22;17407;51.120;3.702;2023-05-07T13:55:37;23.20;99.90
25688;DHT22;17407;51.120;3.702;2023-05-07T13:58:02;23.20;99.90
25688;DHT22;17407;51.120;3.702;2023-05-07T14:00:29;23.10;99.90
25688;DHT22;17407;51.120;3.702;2023-05-07T14:02:55;23.10;99.90
25688;DHT22;17407;51.120;3.702;2023-05-07T14:05:22;23.10;99.90
25688;DHT22;17407;51.120;3.702;2023-05-07T14:07:54;23.10;99.90
25688;DHT22;17407;51.120;3.702;2023-05-07T14:10:20;23.10;99.90
25688;DHT22;17407;51.120;3.702;2023-05-07T14:12:46;23.10;99.90
25688;DHT22;17407;51.120;3.702;2023-05-07T14:15:12;23.00;99.90
25688;DHT22;17407;51.120;3.702;2023-05-07T14:17:38;23.00;99.90
25688;DHT22;17407;51.120;3.702;2023-05-07T14:20:04;23.00;99.90
25688;DHT22;17407;51.120;3.702;2023-05-07T14:22:32;22.90;99.90
25688;DHT22;17407;51.120;3.702;2023-05-07T14:24:57;22.90;99.90
25688;DHT22;17407;51.120;3.702;2023-05-07T14:27:23;22.80;99.90
25688;DHT22;17407;51.120;3.702;2023-05-07T14:29:49;22.80;99.90
25688;DHT22;17407;51.120;3.702;2023-05-07T14:32:17;22.80;99.90
25688;DHT22;17407;51.120;3.702;2023-05-07T14:34:44;22.70;99.90
25688;DHT22;17407;51.120;3.702;2023-05-07T14:37:09;22.70;99.90
25688;DHT22;17407;51.120;3.702;2023-05-07T14:39:35;22.60;99.90
25688;DHT22;17407;51.120;3.702;2023-05-07T14:42:01;22.70;99.90
25688;DHT22;17407;51.120;3.702;2023-05-07T14:44:27;22.60;99.90
25688;DHT22;17407;51.120;3.702;2023-05-07T14:46:53;22.60;99.90
25688;DHT22;17407;51.120;3.702;2023-05-07T14:49:18;22.60;99.90
25688;DHT22;17407;51.120;3.702;2023-05-07T14:51:45;22.70;99.90
25688;DHT22;17407;51.120;3.702;2023-05-07T14:54:12;22.60;99.90
25688;DHT22;17407;51.120;3.702;2023-05-07T14:56:38;22.60;99.90
25688;DHT22;17407;51.120;3.702;2023-05-07T14:59:03;22.70;99.90
25688;DHT22;17407;51.120;3.702;2023-05-07T15:01:29;22.60;99.90
25688;DHT22;17407;51.120;3.702;2023-05-07T15:03:55;22.70;99.90
25688;DHT22;17407;51.120;3.702;2023-05-07T15:06:21;22.70;99.90
25688;DHT22;17407;51.120;3.702;2023-05-07T15:08:47;22.70;99.90
25688;DHT22;17407;51.120;3.702;2023-05-07T15:11:14;22.60;99.90
25688;DHT22;17407;51.120;3.702;2023-05-07T15:13:41;22.60;99.90
25688;DHT22;17407;51.120;3.702;2023-05-07T15:16:07;22.50;99.90
25688;DHT22;17407;51.120;3.702;2023-05-07T15:18:33;22.60;99.90
25688;DHT22;17407;51.120;3.702;2023-05-07T15:20:58;22.50;99.90
25688;DHT22;17407;51.120;3.702;2023-05-07T15:23:24;22.50;99.90
25688;DHT22;17407;51.120;3.702;2023-05-07T15:25:50;22.50;99.90
25688;DHT22;17407;51.120;3.702;2023-05-07T15:28:15;22.40;99.90
25688;DHT22;17407;51.120;3.702;2023-05-07T15:30:41;22.40;99.90
25688;DHT22;17407;51.120;3.702;2023-05-07T15:33:07;22.40;99.90
25688;DHT22;17407;51.120;3.702;2023-05-07T15:35:32;22.40;99.90
25688;DHT22;17407;51.120;3.702;2023-05-07T15:37:58;22.40;99.90
25688;DHT22;17407;51.120;3.702;2023-05-07T15:40:24;22.40;99.90
25688;DHT22;17407;51.120;3.702;2023-05-07T15:42:50;22.40;99.90
25688;DHT22;17407;51.120;3.702;2023-05-07T15:45:19;22.40;99.90
25688;DHT22;17407;51.120;3.702;2023-05-07T15:47:44;22.30;99.90
25688;DHT22;17407;51.120;3.702;2023-05-07T15:50:10;22.30;99.90
25688;DHT22;17407;51.120;3.702;2023-05-07T15:52:36;22.10;99.90
25688;DHT22;17407;51.120;3.702;2023-05-07T15:55:03;22.00;99.90
25688;DHT22;17407;51.120;3.702;2023-05-07T15:57:30;22.00;99.90
25688;DHT22;17407;51.120;3.702;2023-05-07T15:59:57;22.00;99.90
25688;DHT22;17407;51.120;3.702;2023-05-07T16:02:22;21.90;99.90
25688;DHT22;17407;51.120;3.702;2023-05-07T16:04:48;21.80;99.90
25688;DHT22;17407;51.120;3.702;2023-05-07T16:07:13;21.80;99.90
25688;DHT22;17407;51.120;3.702;2023-05-07T16:09:39;21.70;99.90
25688;DHT22;17407;51.120;3.702;2023-05-07T16:12:05;21.70;99.90
25688;DHT22;17407;51.120;3.702;2023-05-07T16:14:31;21.70;99.90
25688;DHT22;17407;51.120;3.702;2023-05-07T16:16:56;21.60;99.90
25688;DHT22;17407;51.120;3.702;2023-05-07T16:19:22;21.60;99.90
25688;DHT22;17407;51.120;3.702;2023-05-07T16:21:48;21.50;99.90
25688;DHT22;17407;51.120;3.702;2023-05-07T16:24:14;21.40;99.90
25688;DHT22;17407;51.120;3.702;2023-05-07T16:26:39;21.40;99.90
25688;DHT22;17407;51.120;3.702;2023-05-07T16:29:05;21.30;99.90
25688;DHT22;17407;51.120;3.702;2023-05-07T16:31:31;21.30;99.90
25688;DHT22;17407;51.120;3.702;2023-05-07T16:33:58;21.30;99.90
25688;DHT22;17407;51.120;3.702;2023-05-07T16:36:26;21.20;99.90
25688;DHT22;17407;51.120;3.702;2023-05-07T16:38:53;21.20;99.90
25688;DHT22;17407;51.120;3.702;2023-05-07T16:41:20;21.20;99.90
25688;DHT22;17407;51.120;3.702;2023-05-07T16:43:46;21.20;99.90
25688;DHT22;17407;51.120;3.702;2023-05-07T16:46:12;21.10;99.90
25688;DHT22;17407;51.120;3.702;2023-05-07T16:48:37;21.10;99.90
25688;DHT22;17407;51.120;3.702;2023-05-07T16:51:03;21.00;99.90
25688;DHT22;17407;51.120;3.702;2023-05-07T16:53:29;21.00;99.90
25688;DHT22;17407;51.120;3.702;2023-05-07T16:55:54;21.00;99.90
25688;DHT22;17407;51.120;3.702;2023-05-07T16:58:21;20.90;99.90
25688;DHT22;17407;51.120;3.702;2023-05-07T17:00:47;20.90;99.90
25688;DHT22;17407;51.120;3.702;2023-05-07T17:03:12;20.90;99.90
25688;DHT22;17407;51.120;3.702;2023-05-07T17:05:38;20.90;99.90
25688;DHT22;17407;51.120;3.702;2023-05-07T17:08:04;20.80;99.90
25688;DHT22;17407;51.120;3.702;2023-05-07T17:10:30;20.80;99.90
25688;DHT22;17407;51.120;3.702;2023-05-07T17:12:55;20.70;99.90
25688;DHT22;17407;51.120;3.702;2023-05-07T17:15:21;20.70;99.90
25688;DHT22;17407;51.120;3.702;2023-05-07T17:17:47;20.70;99.90
25688;DHT22;17407;51.120;3.702;2023-05-07T17:20:13;20.60;99.90
25688;DHT22;17407;51.120;3.702;2023-05-07T17:22:38;20.60;99.90
25688;DHT22;17407;51.120;3.702;2023-05-07T17:25:05;20.50;99.90
25688;DHT22;17407;51.120;3.702;2023-05-07T17:27:31;20.50;99.90
25688;DHT22;17407;51.120;3.702;2023-05-07T17:29:58;20.50;99.90
25688;DHT22;17407;51.120;3.702;2023-05-07T17:32:24;20.40;99.90
25688;DHT22;17407;51.120;3.702;2023-05-07T17:34:51;20.40;99.90
25688;DHT22;17407;51.120;3.702;2023-05-07T17:37:17;20.20;99.90
25688;DHT22;17407;51.120;3.702;2023-05-07T17:39:42;20.20;99.90
25688;DHT22;17407;51.120;3.702;2023-05-07T17:42:08;20.10;99.90
25688;DHT22;17407;51.120;3.702;2023-05-07T17:44:34;20.10;99.90
25688;DHT22;17407;51.120;3.702;2023-05-07T17:47:00;20.10;99.90
25688;DHT22;17407;51.120;3.702;2023-05-07T17:49:26;20.10;99.90
25688;DHT22;17407;51.120;3.702;2023-05-07T17:51:52;20.10;99.90
25688;DHT22;17407;51.120;3.702;2023-05-07T17:54:17;20.10;99.90
25688;DHT22;17407;51.120;3.702;2023-05-07T17:56:43;20.10;99.90
25688;DHT22;17407;51.120;3.702;2023-05-07T17:59:09;20.10;99.90
25688;DHT22;17407;51.120;3.702;2023-05-07T18:01:36;20.00;99.90
25688;DHT22;17407;51.120;3.702;2023-05-07T18:04:01;20.00;99.90
25688;DHT22;17407;51.120;3.702;2023-05-07T18:06:27;20.00;99.90
25688;DHT22;17407;51.120;3.702;2023-05-07T18:08:53;20.00;99.90
25688;DHT22;17407;51.120;3.702;2023-05-07T18:11:20;20.00;99.90
25688;DHT22;17407;51.120;3.702;2023-05-07T18:13:46;20.10;99.90
25688;DHT22;17407;51.120;3.702;2023-05-07T18:16:12;20.10;99.90
25688;DHT22;17407;51.120;3.702;2023-05-07T18:18:39;20.10;99.90
25688;DHT22;17407;51.120;3.702;2023-05-07T18:21:05;20.20;99.90
25688;DHT22;17407;51.120;3.702;2023-05-07T18:23:31;20.20;99.90
25688;DHT22;17407;51.120;3.702;2023-05-07T18:26:00;20.30;99.90
25688;DHT22;17407;51.120;3.702;2023-05-07T18:28:25;20.30;99.90
25688;DHT22;17407;51.120;3.702;2023-05-07T18:30:51;20.30;99.90
25688;DHT22;17407;51.120;3.702;2023-05-07T18:33:16;20.30;99.90
25688;DHT22;17407;51.120;3.702;2023-05-07T18:35:42;20.40;99.90
25688;DHT22;17407;51.120;3.702;2023-05-07T18:38:09;20.30;99.90
25688;DHT22;17407;51.120;3.702;2023-05-07T18:40:35;20.30;99.90
25688;DHT22;17407;51.120;3.702;2023-05-07T18:43:01;20.30;99.90
25688;DHT22;17407;51.120;3.702;2023-05-07T18:45:33;20.30;99.90
25688;DHT22;17407;51.120;3.702;2023-05-07T18:47:59;20.30;99.90
25688;DHT22;17407;51.120;3.702;2023-05-07T18:50:25;20.20;99.90
25688;DHT22;17407;51.120;3.702;2023-05-07T18:52:51;20.20;99.90
25688;DHT22;17407;51.120;3.702;2023-05-07T18:55:17;20.20;99.90
25688;DHT22;17407;51.120;3.702;2023-05-07T18:57:42;20.10;99.90
25688;DHT22;17407;51.120;3.702;2023-05-07T19:00:10;20.10;99.90
25688;DHT22;17407;51.120;3.702;2023-05-07T19:02:37;20.00;99.90
25688;DHT22;17407;51.120;3.702;2023-05-07T19:05:03;20.00;99.90
25688;DHT22;17407;51.120;3.702;2023-05-07T19:07:29;19.90;99.90
25688;DHT22;17407;51.120;3.702;2023-05-07T19:09:55;19.80;99.90
25688;DHT22;17407;51.120;3.702;2023-05-07T19:12:21;19.80;99.90
25688;DHT22;17407;51.120;3.702;2023-05-07T19:14:47;19.70;99.90
25688;DHT22;17407;51.120;3.702;2023-05-07T19:17:13;19.60;99.90
25688;DHT22;17407;51.120;3.702;2023-05-07T19:19:40;19.60;99.90
25688;DHT22;17407;51.120;3.702;2023-05-07T19:22:06;19.50;99.90
25688;DHT22;17407;51.120;3.702;2023-05-07T19:24:32;19.40;99.90
25688;DHT22;17407;51.120;3.702;2023-05-07T19:26:58;19.30;99.90
25688;DHT22;17407;51.120;3.702;2023-05-07T19:29:24;19.20;99.90
25688;DHT22;17407;51.120;3.702;2023-05-07T19:31:50;19.20;99.90
25688;DHT22;17407;51.120;3.702;2023-05-07T19:34:15;19.10;99.90
25688;DHT22;17407;51.120;3.702;2023-05-07T19:36:41;19.00;99.90
25688;DHT22;17407;51.120;3.702;2023-05-07T19:39:07;19.00;99.90
25688;DHT22;17407;51.120;3.702;2023-05-07T19:41:33;18.90;99.90
25688;DHT22;17407;51.120;3.702;2023-05-07T19:43:58;18.80;99.90
25688;DHT22;17407;51.120;3.702;2023-05-07T19:46:24;18.80;99.90
25688;DHT22;17407;51.120;3.702;2023-05-07T19:48:50;18.70;99.90
25688;DHT22;17407;51.120;3.702;2023-05-07T19:51:15;18.70;99.90
25688;DHT22;17407;51.120;3.702;2023-05-07T19:53:41;18.60;99.90
25688;DHT22;17407;51.120;3.702;2023-05-07T19:56:10;18.50;99.90
25688;DHT22;17407;51.120;3.702;2023-05-07T19:58:36;18.50;99.90
25688;DHT22;17407;51.120;3.702;2023-05-07T20:01:03;18.40;99.90
25688;DHT22;17407;51.120;3.702;2023-05-07T20:03:30;18.40;99.90
25688;DHT22;17407;51.120;3.702;2023-05-07T20:05:56;18.30;99.90
25688;DHT22;17407;51.120;3.702;2023-05-07T20:08:22;18.30;99.90
25688;DHT22;17407;51.120;3.702;2023-05-07T20:10:48;18.20;99.90
25688;DHT22;17407;51.120;3.702;2023-05-07T20:13:14;18.20;99.90
25688;DHT22;17407;51.120;3.702;2023-05-07T20:15:40;18.20;99.90
25688;DHT22;17407;51.120;3.702;2023-05-07T20:18:06;18.10;99.90
25688;DHT22;17407;51.120;3.702;2023-05-07T20:20:32;18.00;99.90
25688;DHT22;17407;51.120;3.702;2023-05-07T20:22:57;18.00;99.90
25688;DHT22;17407;51.120;3.702;2023-05-07T20:25:23;18.00;99.90
25688;DHT22;17407;51.120;3.702;2023-05-07T20:27:49;17.90;99.90
25688;DHT22;17407;51.120;3.702;2023-05-07T20:30:14;17.90;99.90
25688;DHT22;17407;51.120;3.702;2023-05-07T20:32:40;17.80;99.90
25688;DHT22;17407;51.120;3.702;2023-05-07T20:35:06;17.80;99.90
25688;DHT22;17407;51.120;3.702;2023-05-07T20:37:32;17.80;99.90
25688;DHT22;17407;51.120;3.702;2023-05-07T20:39:59;17.70;99.90
25688;DHT22;17407;51.120;3.702;2023-05-07T20:42:25;17.70;99.90
25688;DHT22;17407;51.120;3.702;2023-05-07T20:44:51;17.70;99.90
25688;DHT22;17407;51.120;3.702;2023-05-07T20:47:20;17.70;99.90
25688;DHT22;17407;51.120;3.702;2023-05-07T20:49:52;17.70;99.90
25688;DHT22;17407;51.120;3.702;2023-05-07T20:52:19;17.70;99.90
25688;DHT22;17407;51.120;3.702;2023-05-07T20:54:45;17.60;99.90
25688;DHT22;17407;51.120;3.702;2023-05-07T20:57:12;17.60;99.90
25688;DHT22;17407;51.120;3.702;2023-05-07T20:59:38;17.60;99.90
25688;DHT22;17407;51.120;3.702;2023-05-07T21:02:05;17.50;99.90
25688;DHT22;17407;51.120;3.702;2023-05-07T21:04:31;17.50;99.90
25688;DHT22;17407;51.120;3.702;2023-05-07T21:06:58;17.50;99.90
25688;DHT22;17407;51.120;3.702;2023-05-07T21:09:23;17.50;99.90
25688;DHT22;17407;51.120;3.702;2023-05-07T21:11:49;17.40;99.90
25688;DHT22;17407;51.120;3.702;2023-05-07T21:14:15;17.40;99.90
25688;DHT22;17407;51.120;3.702;2023-05-07T21:16:43;17.40;99.90
25688;DHT22;17407;51.120;3.702;2023-05-07T21:19:09;17.30;99.90
25688;DHT22;17407;51.120;3.702;2023-05-07T21:21:35;17.30;99.90
25688;DHT22;17407;51.120;3.702;2023-05-07T21:24:01;17.30;99.90
25688;DHT22;17407;51.120;3.702;2023-05-07T21:26:27;17.30;99.90
25688;DHT22;17407;51.120;3.702;2023-05-07T21:28:52;17.20;99.90
25688;DHT22;17407;51.120;3.702;2023-05-07T21:31:19;17.20;99.90
25688;DHT22;17407;51.120;3.702;2023-05-07T21:33:48;17.10;99.90
25688;DHT22;17407;51.120;3.702;2023-05-07T21:36:14;17.20;99.90
25688;DHT22;17407;51.120;3.702;2023-05-07T21:38:40;17.10;99.90
25688;DHT22;17407;51.120;3.702;2023-05-07T21:41:06;17.10;99.90
25688;DHT22;17407;51.120;3.702;2023-05-07T21:43:32;17.00;99.90
25688;DHT22;17407;51.120;3.702;2023-05-07T21:45:57;17.00;99.90
25688;DHT22;17407;51.120;3.702;2023-05-07T21:48:26;17.00;99.90
25688;DHT22;17407;51.120;3.702;2023-05-07T21:51:03;16.90;99.90
25688;DHT22;17407;51.120;3.702;2023-05-07T21:53:29;16.90;99.90
25688;DHT22;17407;51.120;3.702;2023-05-07T21:55:55;16.80;99.90
25688;DHT22;17407;51.120;3.702;2023-05-07T21:58:21;16.90;99.90
25688;DHT22;17407;51.120;3.702;2023-05-07T22:00:47;16.80;99.90
25688;DHT22;17407;51.120;3.702;2023-05-07T22:03:12;16.80;99.90
25688;DHT22;17407;51.120;3.702;2023-05-07T22:05:38;16.80;99.90
25688;DHT22;17407;51.120;3.702;2023-05-07T22:08:04;16.70;99.90
25688;DHT22;17407;51.120;3.702;2023-05-07T22:10:29;16.70;99.90
25688;DHT22;17407;51.120;3.702;2023-05-07T22:12:55;16.60;99.90
25688;DHT22;17407;51.120;3.702;2023-05-07T22:15:21;16.60;99.90
25688;DHT22;17407;51.120;3.702;2023-05-07T22:17:46;16.60;99.90
25688;DHT22;17407;51.120;3.702;2023-05-07T22:20:12;16.60;99.90
25688;DHT22;17407;51.120;3.702;2023-05-07T22:22:48;16.60;99.90
25688;DHT22;17407;51.120;3.702;2023-05-07T22:25:15;16.50;99.90
25688;DHT22;17407;51.120;3.702;2023-05-07T22:27:41;16.40;99.90
25688;DHT22;17407;51.120;3.702;2023-05-07T22:30:07;16.50;99.90
25688;DHT22;17407;51.120;3.702;2023-05-07T22:32:32;16.40;99.90
25688;DHT22;17407;51.120;3.702;2023-05-07T22:34:58;16.40;99.90
25688;DHT22;17407;51.120;3.702;2023-05-07T22:37:24;16.40;99.90
25688;DHT22;17407;51.120;3.702;2023-05-07T22:39:49;16.30;99.90
25688;DHT22;17407;51.120;3.702;2023-05-07T22:42:15;16.30;99.90
25688;DHT22;17407;51.120;3.702;2023-05-07T22:44:41;16.30;99.90
25688;DHT22;17407;51.120;3.702;2023-05-07T22:47:06;16.20;99.90
25688;DHT22;17407;51.120;3.702;2023-05-07T22:49:35;16.20;99.90
25688;DHT22;17407;51.120;3.702;2023-05-07T22:52:01;16.20;99.90
25688;DHT22;17407;51.120;3.702;2023-05-07T22:54:27;16.20;99.90
25688;DHT22;17407;51.120;3.702;2023-05-07T22:56:53;16.10;99.90
25688;DHT22;17407;51.120;3.702;2023-05-07T22:59:19;16.10;99.90
25688;DHT22;17407;51.120;3.702;2023-05-07T23:01:45;16.10;99.90
25688;DHT22;17407;51.120;3.702;2023-05-07T23:04:11;16.10;99.90
25688;DHT22;17407;51.120;3.702;2023-05-07T23:06:37;16.10;99.90
25688;DHT22;17407;51.120;3.702;2023-05-07T23:09:03;16.00;99.90
25688;DHT22;17407;51.120;3.702;2023-05-07T23:11:29;16.00;99.90
25688;DHT22;17407;51.120;3.702;2023-05-07T23:13:55;16.00;99.90
25688;DHT22;17407;51.120;3.702;2023-05-07T23:16:20;16.00;99.90
25688;DHT22;17407;51.120;3.702;2023-05-07T23:18:46;15.90;99.90
25688;DHT22;17407;51.120;3.702;2023-05-07T23:21:12;15.90;99.90
25688;DHT22;17407;51.120;3.702;2023-05-07T23:23:38;15.90;99.90
25688;DHT22;17407;51.120;3.702;2023-05-07T23:26:04;15.90;99.90
25688;DHT22;17407;51.120;3.702;2023-05-07T23:28:30;15.80;99.90
25688;DHT22;17407;51.120;3.702;2023-05-07T23:30:55;15.80;99.90
25688;DHT22;17407;51.120;3.702;2023-05-07T23:33:21;15.80;99.90
25688;DHT22;17407;51.120;3.702;2023-05-07T23:35:46;15.80;99.90
25688;DHT22;17407;51.120;3.702;2023-05-07T23:38:12;15.80;99.90
25688;DHT22;17407;51.120;3.702;2023-05-07T23:40:38;15.80;99.90
25688;DHT22;17407;51.120;3.702;2023-05-07T23:43:03;15.80;99.90
25688;DHT22;17407;51.120;3.702;2023-05-07T23:45:29;15.80;99.90
25688;DHT22;17407;51.120;3.702;2023-05-07T23:47:54;15.80;99.90
25688;DHT22;17407;51.120;3.702;2023-05-07T23:50:20;15.70;99.90
25688;DHT22;17407;51.120;3.702;2023-05-07T23:52:46;15.80;99.90
25688;DHT22;17407;51.120;3.702;2023-05-07T23:55:11;15.70;99.90
25688;DHT22;17407;51.120;3.702;2023-05-07T23:57:38;15.70;99.90
